TimeCST,TemperatureF,Dew PointF,Humidity,Sea Level PressureIn,VisibilityMPH,Wind Direction,Wind SpeedMPH,Gust SpeedMPH,PrecipitationIn,Events,Conditions,WindDirDegrees,DateUTC
12:15 AM,50.0,46.4,87,29.91,7.0,East,5.8,-,N/A,,Clear,90,2012-12-07 06:15:00
12:35 AM,50.0,46.4,87,29.90,7.0,East,4.6,-,N/A,,Clear,100,2012-12-07 06:35:00
12:55 AM,50.0,46.4,87,29.90,7.0,East,8.1,-,N/A,,Scattered Clouds,90,2012-12-07 06:55:00
1:15 AM,50.0,46.4,87,29.89,5.0,ESE,6.9,-,N/A,,Scattered Clouds,110,2012-12-07 07:15:00
1:35 AM,51.8,50.0,94,29.89,2.5,ESE,5.8,-,N/A,,Overcast,110,2012-12-07 07:35:00
1:55 AM,51.8,50.0,94,29.89,1.2,ESE,8.1,-,N/A,,Overcast,110,2012-12-07 07:55:00
2:15 AM,51.8,50.0,94,29.89,0.8,ESE,6.9,-,N/A,,Overcast,110,2012-12-07 08:15:00
2:35 AM,51.8,50.0,94,29.89,1.0,East,5.8,-,N/A,,Overcast,100,2012-12-07 08:35:00
2:55 AM,51.8,50.0,94,29.89,1.5,East,5.8,-,N/A,,Overcast,100,2012-12-07 08:55:00
3:15 AM,51.8,50.0,94,29.89,2.0,East,4.6,-,N/A,,Overcast,100,2012-12-07 09:15:00
3:35 AM,51.8,51.8,100,29.89,1.8,SE,4.6,-,N/A,,Overcast,130,2012-12-07 09:35:00
3:55 AM,53.6,51.8,94,29.88,1.5,SE,5.8,-,N/A,,Overcast,130,2012-12-07 09:55:00
4:15 AM,53.6,51.8,94,29.88,1.2,ESE,5.8,-,N/A,,Overcast,110,2012-12-07 10:15:00
4:35 AM,53.6,51.8,94,29.87,1.0,ESE,5.8,-,N/A,,Overcast,120,2012-12-07 10:35:00
4:55 AM,53.6,51.8,94,29.87,1.0,SE,5.8,-,N/A,,Overcast,130,2012-12-07 10:55:00
5:15 AM,53.6,51.8,94,29.87,1.5,SE,8.1,-,N/A,,Overcast,130,2012-12-07 11:15:00
5:35 AM,53.6,51.8,94,29.88,1.5,ESE,5.8,-,N/A,,Overcast,120,2012-12-07 11:35:00
6:15 AM,53.6,53.6,100,29.87,1.8,SE,6.9,-,N/A,,Overcast,140,2012-12-07 12:15:00
6:35 AM,53.6,53.6,100,29.87,2.0,SE,8.1,-,N/A,,Overcast,140,2012-12-07 12:35:00
6:55 AM,53.6,53.6,100,29.88,3.0,SE,6.9,-,N/A,,Overcast,130,2012-12-07 12:55:00
7:15 AM,55.4,53.6,94,29.89,3.0,ESE,8.1,-,N/A,,Overcast,120,2012-12-07 13:15:00
7:35 AM,55.4,53.6,94,29.89,3.0,ESE,5.8,-,N/A,,Overcast,120,2012-12-07 13:35:00
7:55 AM,55.4,53.6,94,29.89,2.5,ESE,6.9,-,N/A,,Mostly Cloudy,110,2012-12-07 13:55:00
8:15 AM,53.6,53.6,100,29.89,3.0,ESE,6.9,-,N/A,,Mostly Cloudy,110,2012-12-07 14:15:00
8:35 AM,55.4,53.6,94,29.89,3.0,East,9.2,-,N/A,,Overcast,100,2012-12-07 14:35:00
8:55 AM,55.4,53.6,94,29.89,3.0,East,8.1,-,N/A,,Overcast,100,2012-12-07 14:55:00
9:15 AM,55.4,53.6,94,29.89,3.0,ESE,8.1,-,N/A,,Overcast,120,2012-12-07 15:15:00
9:35 AM,55.4,53.6,94,29.90,3.0,ESE,9.2,-,N/A,,Overcast,110,2012-12-07 15:35:00
9:55 AM,55.4,53.6,94,29.89,3.0,SE,8.1,-,N/A,,Overcast,130,2012-12-07 15:55:00
10:15 AM,55.4,53.6,94,29.89,3.0,SE,6.9,-,N/A,,Overcast,130,2012-12-07 16:15:00
10:35 AM,55.4,55.4,100,29.89,4.0,SSE,8.1,-,N/A,,Overcast,160,2012-12-07 16:35:00
10:55 AM,57.2,55.4,94,29.88,5.0,South,6.9,-,N/A,,Overcast,170,2012-12-07 16:55:00
11:15 AM,59.0,55.4,88,29.88,5.0,South,4.6,-,N/A,,Overcast,170,2012-12-07 17:15:00
11:35 AM,59.0,55.4,88,29.87,5.0,SSE,5.8,-,N/A,,Overcast,150,2012-12-07 17:35:00
11:55 AM,59.0,55.4,88,29.85,7.0,SSE,6.9,-,N/A,,Overcast,160,2012-12-07 17:55:00
12:15 PM,60.8,57.2,88,29.85,5.0,South,5.8,-,N/A,,Overcast,180,2012-12-07 18:15:00
12:35 PM,60.8,55.4,82,29.84,7.0,South,5.8,-,N/A,,Overcast,170,2012-12-07 18:35:00
12:55 PM,62.6,55.4,77,29.83,7.0,South,6.9,-,N/A,,Overcast,190,2012-12-07 18:55:00
1:15 PM,64.4,55.4,73,29.82,7.0,South,6.9,-,N/A,,Overcast,190,2012-12-07 19:15:00
1:35 PM,66.2,55.4,68,29.80,10.0,SSW,6.9,-,N/A,,Mostly Cloudy,200,2012-12-07 19:35:00
1:55 PM,68.0,55.4,64,29.80,10.0,SSE,5.8,-,N/A,,Scattered Clouds,160,2012-12-07 19:55:00
2:15 PM,68.0,53.6,60,29.79,10.0,South,10.4,-,N/A,,Scattered Clouds,170,2012-12-07 20:15:00
2:35 PM,68.0,53.6,60,29.79,10.0,South,5.8,-,N/A,,Scattered Clouds,170,2012-12-07 20:35:00
2:55 PM,69.8,53.6,56,29.79,10.0,South,10.4,-,N/A,,Scattered Clouds,190,2012-12-07 20:55:00
3:15 PM,69.8,53.6,56,29.79,10.0,South,11.5,-,N/A,,Scattered Clouds,190,2012-12-07 21:15:00
3:35 PM,69.8,51.8,53,29.79,10.0,SW,9.2,16.1,N/A,,Scattered Clouds,220,2012-12-07 21:35:00
3:55 PM,69.8,53.6,56,29.79,10.0,SSW,12.7,-,N/A,,Scattered Clouds,200,2012-12-07 21:55:00
4:15 PM,69.8,53.6,56,29.79,10.0,South,6.9,-,N/A,,Scattered Clouds,190,2012-12-07 22:15:00
4:35 PM,69.8,53.6,56,29.79,10.0,South,6.9,-,N/A,,Scattered Clouds,180,2012-12-07 22:35:00
4:55 PM,68.0,53.6,60,29.80,10.0,South,5.8,-,N/A,,Scattered Clouds,190,2012-12-07 22:55:00
5:15 PM,64.4,53.6,68,29.80,10.0,South,4.6,-,N/A,,Mostly Cloudy,190,2012-12-07 23:15:00
5:35 PM,64.4,53.6,68,29.81,10.0,South,3.5,-,N/A,,Overcast,190,2012-12-07 23:35:00
5:55 PM,64.4,53.6,68,29.81,10.0,South,4.6,-,N/A,,Overcast,180,2012-12-07 23:55:00
6:15 PM,64.4,55.4,73,29.82,10.0,SSW,4.6,-,N/A,,Overcast,200,2012-12-08 00:15:00
6:35 PM,64.4,55.4,73,29.82,10.0,SSW,3.5,-,N/A,,Overcast,200,2012-12-08 00:35:00
6:55 PM,64.4,55.4,73,29.82,10.0,SSW,5.8,-,N/A,,Overcast,200,2012-12-08 00:55:00
7:15 PM,64.4,55.4,73,29.83,10.0,SSW,4.6,-,N/A,,Overcast,200,2012-12-08 01:15:00
7:35 PM,64.4,55.4,73,29.83,10.0,SSW,4.6,-,N/A,,Mostly Cloudy,200,2012-12-08 01:35:00
7:55 PM,64.4,55.4,73,29.83,10.0,SSW,5.8,-,N/A,,Overcast,200,2012-12-08 01:55:00
8:15 PM,64.4,55.4,73,29.83,10.0,SSW,5.8,-,N/A,,Overcast,200,2012-12-08 02:15:00
8:35 PM,62.6,55.4,77,29.84,10.0,SSW,6.9,-,N/A,,Overcast,200,2012-12-08 02:35:00
9:15 PM,62.6,55.4,77,29.85,10.0,West,4.6,-,N/A,,Mostly Cloudy,280,2012-12-08 03:15:00
9:35 PM,62.6,55.4,77,29.85,10.0,West,3.5,-,N/A,,Overcast,270,2012-12-08 03:35:00
9:55 PM,62.6,51.8,68,29.85,10.0,NW,4.6,-,N/A,,Mostly Cloudy,310,2012-12-08 03:55:00
10:15 PM,60.8,50.0,68,29.86,10.0,NW,5.8,-,N/A,,Mostly Cloudy,320,2012-12-08 04:15:00
10:35 PM,60.8,50.0,68,29.87,10.0,Calm,Calm,-,N/A,,Mostly Cloudy,0,2012-12-08 04:35:00
10:55 PM,60.8,50.0,68,29.87,10.0,Calm,Calm,-,N/A,,Mostly Cloudy,0,2012-12-08 04:55:00
11:15 PM,60.8,46.4,59,29.87,10.0,West,3.5,-,N/A,,Mostly Cloudy,280,2012-12-08 05:15:00
11:35 PM,60.8,46.4,59,29.87,10.0,Calm,Calm,-,N/A,,Mostly Cloudy,0,2012-12-08 05:35:00
11:55 PM,59.0,44.6,59,29.88,10.0,WSW,3.5,-,N/A,,Mostly Cloudy,250,2012-12-08 05:55:00